createdAt,value
2022-12-11T00:00:02.111Z,2.18
2022-12-11T00:10:00.215Z,1.6
2022-12-11T00:20:09.406Z,1.82
2022-12-11T00:30:17.423Z,1.84
2022-12-11T00:40:26.813Z,1.97
2022-12-11T00:50:35.145Z,2.21
2022-12-11T01:00:43.074Z,2.56
2022-12-11T01:10:51.085Z,2.15
2022-12-11T01:20:59.134Z,2.42
2022-12-11T01:31:07.025Z,2.15
2022-12-11T01:41:14.973Z,2.36
2022-12-11T01:51:22.950Z,2.4
2022-12-11T02:01:30.964Z,3.36
2022-12-11T02:11:39.198Z,2.6
2022-12-11T02:21:47.396Z,2.57
2022-12-11T02:31:57.651Z,2.15
2022-12-11T02:41:55.771Z,1.82
2022-12-11T02:52:03.951Z,1.82
2022-12-11T03:02:12.016Z,1.38
2022-12-11T03:12:21.311Z,1.46
2022-12-11T03:22:29.560Z,1.56
2022-12-11T03:32:37.810Z,1.56
2022-12-11T03:42:45.909Z,1.72
2022-12-11T03:52:53.096Z,2.11
2022-12-11T04:03:01.214Z,2.47
2022-12-11T04:13:09.247Z,2.39
2022-12-11T04:23:17.162Z,2.38
2022-12-11T04:33:26.094Z,2.02
2022-12-11T04:43:34.131Z,2.71
2022-12-11T04:53:43.254Z,2.81
2022-12-11T05:03:51.688Z,2.39
2022-12-11T05:13:59.887Z,2.58
2022-12-11T05:24:07.927Z,2.13
2022-12-11T05:34:15.978Z,1.99
2022-12-11T05:44:23.900Z,2.27
2022-12-11T05:54:31.993Z,2.5
2022-12-11T06:04:40.135Z,2.63
2022-12-11T06:14:48.352Z,2.51
2022-12-11T06:24:56.853Z,2.47
2022-12-11T06:35:04.985Z,2.38
2022-12-11T06:45:13.106Z,2.36
2022-12-11T06:55:21.264Z,2.32
2022-12-11T07:05:29.474Z,2.57
2022-12-11T07:15:40.436Z,2.53
2022-12-11T07:25:47.046Z,2.21
2022-12-11T07:35:55.636Z,1.82
2022-12-11T07:46:04.155Z,1.91
2022-12-11T07:56:13.856Z,2.71
2022-12-11T08:06:21.944Z,2.03
2022-12-11T08:16:31.105Z,2.7
2022-12-11T08:26:39.314Z,2.64
2022-12-11T08:36:47.561Z,2.41
2022-12-11T08:46:56.541Z,2.5
2022-12-11T08:57:04.502Z,3.03
2022-12-11T09:07:12.555Z,4
2022-12-11T09:17:20.634Z,3.67
2022-12-11T09:27:28.767Z,2.32
2022-12-11T09:37:37.688Z,3.54
2022-12-11T09:47:45.759Z,3.37
2022-12-11T09:57:53.949Z,4.2
2022-12-11T10:08:02.158Z,4.03
2022-12-11T10:18:09.038Z,4.02
2022-12-11T10:28:17.118Z,4.45
2022-12-11T10:38:26.596Z,4.25
2022-12-11T10:48:35.799Z,4.67
2022-12-11T10:58:45.392Z,5.16
2022-12-11T11:08:54.326Z,4.27
2022-12-11T11:19:02.646Z,4.18
2022-12-11T11:29:16.174Z,4.06
2022-12-11T11:39:14.722Z,4.36
2022-12-11T11:49:22.852Z,3.92
2022-12-11T11:59:31.460Z,3.64
2022-12-11T12:09:44.569Z,4.53
2022-12-11T12:19:43.979Z,4.43
2022-12-11T12:29:53.209Z,5.84
2022-12-11T12:40:01.320Z,4.39
2022-12-11T12:50:09.398Z,4.76
2022-12-11T13:00:16.532Z,4.72
2022-12-11T13:10:27.457Z,3.94
2022-12-11T13:20:27.882Z,4.76
2022-12-11T13:30:26.535Z,5.22
2022-12-11T13:40:38.069Z,4.41
2022-12-11T13:50:36.478Z,4.62
2022-12-11T14:00:44.810Z,5.06
2022-12-11T14:10:52.864Z,5.91
2022-12-11T14:21:01.013Z,4.96
2022-12-11T14:31:09.341Z,5.38
2022-12-11T14:41:17.428Z,5.7
2022-12-11T14:51:25.616Z,6.14
2022-12-11T15:01:37.105Z,6.65
2022-12-11T15:12:02.914Z,6.27
2022-12-11T15:21:42.255Z,6.32
2022-12-11T15:31:50.435Z,6.84
2022-12-11T15:41:59.660Z,6.08
2022-12-11T15:52:07.723Z,6.06
2022-12-11T16:02:16.415Z,7.08
2022-12-11T16:12:29.340Z,6.67
2022-12-11T16:22:28.961Z,5.33
2022-12-11T16:32:39.014Z,6.13
2022-12-11T16:42:38.246Z,7.15
2022-12-11T16:52:47.791Z,6.58
2022-12-11T17:02:55.859Z,5.48
2022-12-11T17:13:04.470Z,5.77
2022-12-11T17:23:12.588Z,5.7
2022-12-11T17:33:20.851Z,6.08
2022-12-11T17:43:28.903Z,5.63
2022-12-11T17:53:36.919Z,6.62
2022-12-11T18:03:45.002Z,6.83
2022-12-11T18:13:53.142Z,6.48
2022-12-11T18:24:01.227Z,7.44
2022-12-11T18:34:13.998Z,8.1
2022-12-11T18:44:11.249Z,7.96
2022-12-11T18:54:22.385Z,7.38
2022-12-11T19:04:21.082Z,7.82
2022-12-11T19:15:27.567Z,8.55
2022-12-11T19:24:53.994Z,8.98
2022-12-11T19:34:44.980Z,7.75
2022-12-11T19:44:54.317Z,7.7
2022-12-11T19:55:14.741Z,8.28
2022-12-11T20:15:26.473Z,7.68
2022-12-11T20:25:16.711Z,8.07
2022-12-11T20:35:27.350Z,8.02
2022-12-11T20:45:17.309Z,8.95
2022-12-11T20:55:25.227Z,9.97
2022-12-11T21:05:33.619Z,8.93
2022-12-11T21:15:41.835Z,8.54
2022-12-11T21:25:50.196Z,8.74
2022-12-11T21:35:58.796Z,8.85
2022-12-11T21:46:06.554Z,9.03
2022-12-11T21:56:14.413Z,7.94
2022-12-11T22:06:22.944Z,7.81
2022-12-11T22:16:31.390Z,8.24
2022-12-11T22:26:39.594Z,9.38
2022-12-11T22:36:48.644Z,8.66
2022-12-11T22:46:55.896Z,9.28
2022-12-11T22:57:11.639Z,9.65
2022-12-11T23:07:09.979Z,8.72
2022-12-11T23:17:18.262Z,8.65
2022-12-11T23:27:26.572Z,9.4
2022-12-11T23:37:34.955Z,7.93
2022-12-11T23:47:43.425Z,8.69
2022-12-11T23:57:51.381Z,8.99
